sensor_id;sensor_type;location;lat;lon;timestamp;P1;durP1;ratioP1;P2;durP2;ratioP2
80842;SDS011;70255;53.686;10.778;2023-07-09T00:01:36;3.28;;;1.63;;
80842;SDS011;70255;53.686;10.778;2023-07-09T00:04:02;6.13;;;1.77;;
80842;SDS011;70255;53.686;10.778;2023-07-09T00:06:27;4.00;;;1.80;;
80842;SDS011;70255;53.686;10.778;2023-07-09T00:08:52;4.05;;;1.70;;
80842;SDS011;70255;53.686;10.778;2023-07-09T00:11:17;4.17;;;1.97;;
80842;SDS011;70255;53.686;10.778;2023-07-09T00:13:43;4.93;;;1.67;;
80842;SDS011;70255;53.686;10.778;2023-07-09T00:16:13;3.22;;;1.60;;
80842;SDS011;70255;53.686;10.778;2023-07-09T00:18:39;3.63;;;1.77;;
80842;SDS011;70255;53.686;10.778;2023-07-09T00:21:04;3.73;;;1.80;;
80842;SDS011;70255;53.686;10.778;2023-07-09T00:23:30;3.17;;;1.67;;
80842;SDS011;70255;53.686;10.778;2023-07-09T00:25:56;3.83;;;1.60;;
80842;SDS011;70255;53.686;10.778;2023-07-09T00:28:21;4.00;;;1.83;;
80842;SDS011;70255;53.686;10.778;2023-07-09T00:30:46;4.90;;;1.90;;
80842;SDS011;70255;53.686;10.778;2023-07-09T00:33:13;3.20;;;1.88;;
80842;SDS011;70255;53.686;10.778;2023-07-09T00:35:47;4.05;;;1.88;;
80842;SDS011;70255;53.686;10.778;2023-07-09T00:38:20;4.35;;;2.13;;
80842;SDS011;70255;53.686;10.778;2023-07-09T00:41:34;5.20;;;2.45;;
80842;SDS011;70255;53.686;10.778;2023-07-09T00:43:34;6.05;;;3.00;;
80842;SDS011;70255;53.686;10.778;2023-07-09T00:49:02;4.93;;;2.85;;
80842;SDS011;70255;53.686;10.778;2023-07-09T00:51:30;6.95;;;2.83;;
80842;SDS011;70255;53.686;10.778;2023-07-09T00:54:01;4.45;;;2.25;;
80842;SDS011;70255;53.686;10.778;2023-07-09T00:56:39;3.83;;;2.10;;
80842;SDS011;70255;53.686;10.778;2023-07-09T00:59:07;6.18;;;2.92;;
80842;SDS011;70255;53.686;10.778;2023-07-09T01:01:36;6.32;;;2.45;;
80842;SDS011;70255;53.686;10.778;2023-07-09T01:04:02;4.47;;;2.33;;
80842;SDS011;70255;53.686;10.778;2023-07-09T01:06:32;4.18;;;1.92;;
80842;SDS011;70255;53.686;10.778;2023-07-09T01:09:00;3.55;;;2.22;;
80842;SDS011;70255;53.686;10.778;2023-07-09T01:11:25;4.63;;;2.03;;
80842;SDS011;70255;53.686;10.778;2023-07-09T01:13:52;5.63;;;1.80;;
80842;SDS011;70255;53.686;10.778;2023-07-09T01:16:19;4.03;;;1.90;;
80842;SDS011;70255;53.686;10.778;2023-07-09T01:18:48;4.22;;;2.20;;
80842;SDS011;70255;53.686;10.778;2023-07-09T01:21:14;3.73;;;2.10;;
80842;SDS011;70255;53.686;10.778;2023-07-09T01:23:42;3.65;;;1.73;;
80842;SDS011;70255;53.686;10.778;2023-07-09T01:26:09;3.58;;;2.00;;
80842;SDS011;70255;53.686;10.778;2023-07-09T01:28:36;4.25;;;1.92;;
80842;SDS011;70255;53.686;10.778;2023-07-09T01:31:01;4.53;;;2.07;;
80842;SDS011;70255;53.686;10.778;2023-07-09T01:33:29;4.55;;;1.80;;
80842;SDS011;70255;53.686;10.778;2023-07-09T01:35:54;5.63;;;1.63;;
80842;SDS011;70255;53.686;10.778;2023-07-09T01:38:25;4.22;;;2.08;;
80842;SDS011;70255;53.686;10.778;2023-07-09T01:40:52;5.70;;;2.10;;
80842;SDS011;70255;53.686;10.778;2023-07-09T01:43:18;5.17;;;2.23;;
80842;SDS011;70255;53.686;10.778;2023-07-09T01:45:43;5.13;;;1.90;;
80842;SDS011;70255;53.686;10.778;2023-07-09T01:48:08;3.50;;;1.83;;
80842;SDS011;70255;53.686;10.778;2023-07-09T01:50:39;3.83;;;1.60;;
80842;SDS011;70255;53.686;10.778;2023-07-09T01:53:08;4.18;;;1.67;;
80842;SDS011;70255;53.686;10.778;2023-07-09T01:55:34;3.35;;;1.95;;
80842;SDS011;70255;53.686;10.778;2023-07-09T01:57:59;4.03;;;1.90;;
80842;SDS011;70255;53.686;10.778;2023-07-09T02:00:24;3.53;;;2.00;;
80842;SDS011;70255;53.686;10.778;2023-07-09T02:02:50;3.67;;;1.90;;
80842;SDS011;70255;53.686;10.778;2023-07-09T02:05:19;3.73;;;1.90;;
80842;SDS011;70255;53.686;10.778;2023-07-09T02:07:44;4.63;;;1.90;;
80842;SDS011;70255;53.686;10.778;2023-07-09T02:10:11;3.55;;;1.50;;
80842;SDS011;70255;53.686;10.778;2023-07-09T02:12:36;3.85;;;1.83;;
80842;SDS011;70255;53.686;10.778;2023-07-09T02:15:01;4.50;;;1.93;;
80842;SDS011;70255;53.686;10.778;2023-07-09T02:17:27;3.60;;;2.28;;
80842;SDS011;70255;53.686;10.778;2023-07-09T02:19:52;5.53;;;2.53;;
80842;SDS011;70255;53.686;10.778;2023-07-09T02:22:17;4.37;;;2.40;;
80842;SDS011;70255;53.686;10.778;2023-07-09T02:24:44;5.97;;;2.38;;
80842;SDS011;70255;53.686;10.778;2023-07-09T02:27:10;4.70;;;2.30;;
80842;SDS011;70255;53.686;10.778;2023-07-09T02:29:35;4.32;;;2.10;;
80842;SDS011;70255;53.686;10.778;2023-07-09T02:32:01;4.38;;;1.67;;
80842;SDS011;70255;53.686;10.778;2023-07-09T02:34:27;3.70;;;2.00;;
80842;SDS011;70255;53.686;10.778;2023-07-09T02:36:52;3.75;;;1.95;;
80842;SDS011;70255;53.686;10.778;2023-07-09T02:39:18;3.20;;;1.70;;
80842;SDS011;70255;53.686;10.778;2023-07-09T02:41:44;4.75;;;2.30;;
80842;SDS011;70255;53.686;10.778;2023-07-09T02:44:09;4.20;;;2.10;;
80842;SDS011;70255;53.686;10.778;2023-07-09T02:46:35;4.63;;;2.20;;
80842;SDS011;70255;53.686;10.778;2023-07-09T02:49:02;3.53;;;2.13;;
80842;SDS011;70255;53.686;10.778;2023-07-09T02:51:27;4.72;;;1.92;;
80842;SDS011;70255;53.686;10.778;2023-07-09T02:53:53;4.37;;;1.90;;
80842;SDS011;70255;53.686;10.778;2023-07-09T02:56:19;5.65;;;2.08;;
80842;SDS011;70255;53.686;10.778;2023-07-09T02:58:44;4.20;;;2.10;;
80842;SDS011;70255;53.686;10.778;2023-07-09T03:01:09;5.40;;;2.07;;
80842;SDS011;70255;53.686;10.778;2023-07-09T03:03:34;4.68;;;2.30;;
80842;SDS011;70255;53.686;10.778;2023-07-09T03:06:00;3.47;;;1.83;;
80842;SDS011;70255;53.686;10.778;2023-07-09T03:08:25;4.10;;;2.10;;
80842;SDS011;70255;53.686;10.778;2023-07-09T03:10:50;5.90;;;2.40;;
80842;SDS011;70255;53.686;10.778;2023-07-09T03:13:15;4.17;;;2.03;;
80842;SDS011;70255;53.686;10.778;2023-07-09T03:15:41;3.53;;;2.23;;
80842;SDS011;70255;53.686;10.778;2023-07-09T03:18:06;4.63;;;2.37;;
80842;SDS011;70255;53.686;10.778;2023-07-09T03:20:31;3.33;;;2.00;;
80842;SDS011;70255;53.686;10.778;2023-07-09T03:22:56;3.70;;;2.22;;
80842;SDS011;70255;53.686;10.778;2023-07-09T03:25:22;4.10;;;1.95;;
80842;SDS011;70255;53.686;10.778;2023-07-09T03:27:49;3.83;;;2.07;;
80842;SDS011;70255;53.686;10.778;2023-07-09T03:30:15;3.67;;;2.05;;
80842;SDS011;70255;53.686;10.778;2023-07-09T03:32:40;4.35;;;1.90;;
80842;SDS011;70255;53.686;10.778;2023-07-09T03:35:05;4.30;;;1.88;;
80842;SDS011;70255;53.686;10.778;2023-07-09T03:37:31;4.35;;;2.00;;
80842;SDS011;70255;53.686;10.778;2023-07-09T03:39:56;5.67;;;2.53;;
80842;SDS011;70255;53.686;10.778;2023-07-09T03:42:22;4.50;;;1.77;;
80842;SDS011;70255;53.686;10.778;2023-07-09T03:44:47;4.43;;;2.00;;
80842;SDS011;70255;53.686;10.778;2023-07-09T03:47:12;4.07;;;1.98;;
80842;SDS011;70255;53.686;10.778;2023-07-09T03:49:38;4.03;;;2.03;;
80842;SDS011;70255;53.686;10.778;2023-07-09T03:52:03;6.33;;;1.73;;
80842;SDS011;70255;53.686;10.778;2023-07-09T03:54:28;4.78;;;2.25;;
80842;SDS011;70255;53.686;10.778;2023-07-09T03:56:54;3.47;;;1.63;;
80842;SDS011;70255;53.686;10.778;2023-07-09T03:59:19;3.30;;;1.80;;
80842;SDS011;70255;53.686;10.778;2023-07-09T04:01:44;5.07;;;2.03;;
80842;SDS011;70255;53.686;10.778;2023-07-09T04:04:14;3.63;;;2.10;;
80842;SDS011;70255;53.686;10.778;2023-07-09T04:06:39;4.20;;;2.30;;
80842;SDS011;70255;53.686;10.778;2023-07-09T04:09:04;4.97;;;2.30;;
80842;SDS011;70255;53.686;10.778;2023-07-09T04:11:30;3.70;;;2.00;;
80842;SDS011;70255;53.686;10.778;2023-07-09T04:13:55;3.60;;;2.00;;
80842;SDS011;70255;53.686;10.778;2023-07-09T04:16:20;3.43;;;1.90;;
80842;SDS011;70255;53.686;10.778;2023-07-09T04:18:45;4.03;;;2.10;;
80842;SDS011;70255;53.686;10.778;2023-07-09T04:21:11;4.07;;;1.90;;
80842;SDS011;70255;53.686;10.778;2023-07-09T04:23:36;4.37;;;2.07;;
80842;SDS011;70255;53.686;10.778;2023-07-09T04:26:01;3.97;;;2.03;;
80842;SDS011;70255;53.686;10.778;2023-07-09T04:28:27;4.55;;;2.08;;
80842;SDS011;70255;53.686;10.778;2023-07-09T04:30:53;4.07;;;1.80;;
80842;SDS011;70255;53.686;10.778;2023-07-09T04:33:18;3.75;;;2.05;;
80842;SDS011;70255;53.686;10.778;2023-07-09T04:35:45;4.47;;;1.77;;
80842;SDS011;70255;53.686;10.778;2023-07-09T04:38:11;3.50;;;1.98;;
80842;SDS011;70255;53.686;10.778;2023-07-09T04:40:36;4.30;;;1.70;;
80842;SDS011;70255;53.686;10.778;2023-07-09T04:43:01;2.90;;;1.70;;
80842;SDS011;70255;53.686;10.778;2023-07-09T04:45:26;3.38;;;2.08;;
80842;SDS011;70255;53.686;10.778;2023-07-09T04:47:52;3.27;;;1.70;;
80842;SDS011;70255;53.686;10.778;2023-07-09T04:50:17;4.57;;;1.85;;
80842;SDS011;70255;53.686;10.778;2023-07-09T04:52:43;4.80;;;1.92;;
80842;SDS011;70255;53.686;10.778;2023-07-09T04:55:08;3.33;;;2.00;;
80842;SDS011;70255;53.686;10.778;2023-07-09T04:57:34;3.45;;;1.90;;
80842;SDS011;70255;53.686;10.778;2023-07-09T04:59:59;5.20;;;2.05;;
80842;SDS011;70255;53.686;10.778;2023-07-09T05:02:24;3.87;;;1.90;;
80842;SDS011;70255;53.686;10.778;2023-07-09T05:04:50;7.57;;;2.30;;
80842;SDS011;70255;53.686;10.778;2023-07-09T05:07:15;4.75;;;1.90;;
80842;SDS011;70255;53.686;10.778;2023-07-09T05:09:41;5.28;;;2.20;;
80842;SDS011;70255;53.686;10.778;2023-07-09T05:12:06;4.00;;;2.17;;
80842;SDS011;70255;53.686;10.778;2023-07-09T05:14:32;3.70;;;1.98;;
80842;SDS011;70255;53.686;10.778;2023-07-09T05:16:57;4.07;;;1.93;;
80842;SDS011;70255;53.686;10.778;2023-07-09T05:19:22;3.73;;;2.07;;
80842;SDS011;70255;53.686;10.778;2023-07-09T05:21:47;5.43;;;2.37;;
80842;SDS011;70255;53.686;10.778;2023-07-09T05:24:12;5.30;;;2.10;;
80842;SDS011;70255;53.686;10.778;2023-07-09T05:26:38;3.93;;;1.97;;
80842;SDS011;70255;53.686;10.778;2023-07-09T05:29:03;4.57;;;2.13;;
80842;SDS011;70255;53.686;10.778;2023-07-09T05:31:29;5.13;;;1.92;;
80842;SDS011;70255;53.686;10.778;2023-07-09T05:33:54;3.70;;;2.00;;
80842;SDS011;70255;53.686;10.778;2023-07-09T05:36:19;3.27;;;1.90;;
80842;SDS011;70255;53.686;10.778;2023-07-09T05:38:45;3.87;;;1.90;;
80842;SDS011;70255;53.686;10.778;2023-07-09T05:41:11;5.05;;;2.20;;
80842;SDS011;70255;53.686;10.778;2023-07-09T05:43:37;4.37;;;1.87;;
80842;SDS011;70255;53.686;10.778;2023-07-09T05:46:02;4.73;;;2.10;;
80842;SDS011;70255;53.686;10.778;2023-07-09T05:48:28;3.38;;;1.90;;
80842;SDS011;70255;53.686;10.778;2023-07-09T05:50:53;4.25;;;2.03;;
80842;SDS011;70255;53.686;10.778;2023-07-09T05:53:20;4.20;;;2.05;;
80842;SDS011;70255;53.686;10.778;2023-07-09T05:55:45;4.93;;;1.95;;
80842;SDS011;70255;53.686;10.778;2023-07-09T05:58:10;3.50;;;2.13;;
80842;SDS011;70255;53.686;10.778;2023-07-09T06:00:35;4.03;;;2.00;;
80842;SDS011;70255;53.686;10.778;2023-07-09T06:03:02;3.25;;;2.08;;
80842;SDS011;70255;53.686;10.778;2023-07-09T06:05:32;4.97;;;1.70;;
80842;SDS011;70255;53.686;10.778;2023-07-09T06:07:57;3.10;;;1.80;;
80842;SDS011;70255;53.686;10.778;2023-07-09T06:10:22;4.10;;;1.85;;
80842;SDS011;70255;53.686;10.778;2023-07-09T06:12:47;3.97;;;1.70;;
80842;SDS011;70255;53.686;10.778;2023-07-09T06:15:13;3.67;;;2.10;;
80842;SDS011;70255;53.686;10.778;2023-07-09T06:17:39;4.32;;;1.92;;
80842;SDS011;70255;53.686;10.778;2023-07-09T06:20:04;6.70;;;2.20;;
80842;SDS011;70255;53.686;10.778;2023-07-09T06:22:31;3.88;;;1.92;;
80842;SDS011;70255;53.686;10.778;2023-07-09T06:24:56;4.03;;;2.17;;
80842;SDS011;70255;53.686;10.778;2023-07-09T06:27:21;5.27;;;2.30;;
80842;SDS011;70255;53.686;10.778;2023-07-09T06:29:46;3.40;;;2.03;;
80842;SDS011;70255;53.686;10.778;2023-07-09T06:32:12;3.38;;;2.00;;
80842;SDS011;70255;53.686;10.778;2023-07-09T06:34:37;2.97;;;1.90;;
80842;SDS011;70255;53.686;10.778;2023-07-09T06:37:02;4.33;;;2.20;;
80842;SDS011;70255;53.686;10.778;2023-07-09T06:39:30;3.05;;;1.80;;
80842;SDS011;70255;53.686;10.778;2023-07-09T06:41:55;4.27;;;1.90;;
80842;SDS011;70255;53.686;10.778;2023-07-09T06:44:20;3.50;;;1.77;;
80842;SDS011;70255;53.686;10.778;2023-07-09T06:46:45;4.67;;;1.90;;
80842;SDS011;70255;53.686;10.778;2023-07-09T06:49:11;3.97;;;2.00;;
80842;SDS011;70255;53.686;10.778;2023-07-09T06:51:36;4.17;;;2.00;;
80842;SDS011;70255;53.686;10.778;2023-07-09T06:54:01;2.83;;;1.77;;
80842;SDS011;70255;53.686;10.778;2023-07-09T06:56:26;3.83;;;2.10;;
80842;SDS011;70255;53.686;10.778;2023-07-09T06:58:52;3.90;;;2.23;;
80842;SDS011;70255;53.686;10.778;2023-07-09T07:01:17;5.37;;;2.13;;
80842;SDS011;70255;53.686;10.778;2023-07-09T07:03:42;3.08;;;1.92;;
80842;SDS011;70255;53.686;10.778;2023-07-09T07:06:07;3.83;;;1.83;;
80842;SDS011;70255;53.686;10.778;2023-07-09T07:08:33;4.45;;;1.98;;
80842;SDS011;70255;53.686;10.778;2023-07-09T07:10:59;3.45;;;1.85;;
80842;SDS011;70255;53.686;10.778;2023-07-09T07:13:32;4.03;;;1.90;;
80842;SDS011;70255;53.686;10.778;2023-07-09T07:15:57;3.83;;;2.10;;
80842;SDS011;70255;53.686;10.778;2023-07-09T07:18:23;3.30;;;1.95;;
80842;SDS011;70255;53.686;10.778;2023-07-09T07:20:48;3.33;;;2.00;;
80842;SDS011;70255;53.686;10.778;2023-07-09T07:23:14;6.82;;;1.85;;
80842;SDS011;70255;53.686;10.778;2023-07-09T07:25:39;4.00;;;2.23;;
80842;SDS011;70255;53.686;10.778;2023-07-09T07:28:04;4.73;;;2.17;;
80842;SDS011;70255;53.686;10.778;2023-07-09T07:30:29;5.40;;;2.20;;
80842;SDS011;70255;53.686;10.778;2023-07-09T07:32:55;3.05;;;1.90;;
80842;SDS011;70255;53.686;10.778;2023-07-09T07:35:20;3.13;;;1.98;;
80842;SDS011;70255;53.686;10.778;2023-07-09T07:37:46;3.07;;;1.90;;
80842;SDS011;70255;53.686;10.778;2023-07-09T07:40:11;22.85;;;3.35;;
80842;SDS011;70255;53.686;10.778;2023-07-09T07:42:36;5.72;;;2.20;;
80842;SDS011;70255;53.686;10.778;2023-07-09T07:45:02;5.07;;;2.00;;
80842;SDS011;70255;53.686;10.778;2023-07-09T07:47:28;4.10;;;2.20;;
80842;SDS011;70255;53.686;10.778;2023-07-09T07:49:53;3.40;;;2.37;;
80842;SDS011;70255;53.686;10.778;2023-07-09T07:52:19;4.85;;;2.53;;
80842;SDS011;70255;53.686;10.778;2023-07-09T07:54:44;4.63;;;2.35;;
80842;SDS011;70255;53.686;10.778;2023-07-09T07:57:10;3.25;;;1.90;;
80842;SDS011;70255;53.686;10.778;2023-07-09T07:59:36;3.38;;;2.30;;
80842;SDS011;70255;53.686;10.778;2023-07-09T08:02:02;3.53;;;2.35;;
80842;SDS011;70255;53.686;10.778;2023-07-09T08:04:27;3.22;;;1.90;;
80842;SDS011;70255;53.686;10.778;2023-07-09T08:06:53;4.43;;;2.35;;
80842;SDS011;70255;53.686;10.778;2023-07-09T08:09:18;3.28;;;2.00;;
80842;SDS011;70255;53.686;10.778;2023-07-09T08:11:43;3.97;;;2.57;;
80842;SDS011;70255;53.686;10.778;2023-07-09T08:14:09;5.43;;;2.60;;
80842;SDS011;70255;53.686;10.778;2023-07-09T08:16:35;3.33;;;2.28;;
80842;SDS011;70255;53.686;10.778;2023-07-09T08:19:00;4.00;;;2.40;;
80842;SDS011;70255;53.686;10.778;2023-07-09T08:21:25;4.57;;;2.37;;
80842;SDS011;70255;53.686;10.778;2023-07-09T08:23:50;4.00;;;2.28;;
80842;SDS011;70255;53.686;10.778;2023-07-09T08:26:16;4.47;;;2.35;;
80842;SDS011;70255;53.686;10.778;2023-07-09T08:28:41;4.03;;;2.50;;
80842;SDS011;70255;53.686;10.778;2023-07-09T08:31:06;4.20;;;2.33;;
80842;SDS011;70255;53.686;10.778;2023-07-09T08:33:31;3.97;;;2.73;;
80842;SDS011;70255;53.686;10.778;2023-07-09T08:35:57;5.07;;;2.30;;
80842;SDS011;70255;53.686;10.778;2023-07-09T08:38:22;4.78;;;2.45;;
80842;SDS011;70255;53.686;10.778;2023-07-09T08:43:20;3.22;;;2.30;;
80842;SDS011;70255;53.686;10.778;2023-07-09T08:46:01;4.05;;;2.65;;
80842;SDS011;70255;53.686;10.778;2023-07-09T08:48:34;4.00;;;2.60;;
80842;SDS011;70255;53.686;10.778;2023-07-09T08:51:10;4.68;;;2.55;;
80842;SDS011;70255;53.686;10.778;2023-07-09T08:56:10;5.57;;;2.42;;
80842;SDS011;70255;53.686;10.778;2023-07-09T08:58:35;4.60;;;2.60;;
80842;SDS011;70255;53.686;10.778;2023-07-09T09:01:05;4.57;;;2.70;;
80842;SDS011;70255;53.686;10.778;2023-07-09T09:03:35;5.07;;;2.78;;
80842;SDS011;70255;53.686;10.778;2023-07-09T09:06:08;3.53;;;2.50;;
80842;SDS011;70255;53.686;10.778;2023-07-09T09:08:37;6.13;;;3.05;;
80842;SDS011;70255;53.686;10.778;2023-07-09T09:11:07;5.43;;;2.80;;
80842;SDS011;70255;53.686;10.778;2023-07-09T09:13:35;7.18;;;2.92;;
80842;SDS011;70255;53.686;10.778;2023-07-09T09:16:03;5.30;;;2.90;;
80842;SDS011;70255;53.686;10.778;2023-07-09T09:18:31;4.47;;;2.80;;
80842;SDS011;70255;53.686;10.778;2023-07-09T09:21:03;4.57;;;2.90;;
80842;SDS011;70255;53.686;10.778;2023-07-09T09:23:45;7.25;;;2.70;;
80842;SDS011;70255;53.686;10.778;2023-07-09T09:26:33;4.95;;;2.70;;
80842;SDS011;70255;53.686;10.778;2023-07-09T09:28:56;3.53;;;2.50;;
80842;SDS011;70255;53.686;10.778;2023-07-09T09:31:23;3.73;;;2.77;;
80842;SDS011;70255;53.686;10.778;2023-07-09T09:33:49;8.00;;;3.05;;
80842;SDS011;70255;53.686;10.778;2023-07-09T09:36:15;6.50;;;2.70;;
80842;SDS011;70255;53.686;10.778;2023-07-09T09:38:41;3.80;;;2.60;;
80842;SDS011;70255;53.686;10.778;2023-07-09T09:41:18;4.82;;;2.53;;
80842;SDS011;70255;53.686;10.778;2023-07-09T09:43:44;4.95;;;2.90;;
80842;SDS011;70255;53.686;10.778;2023-07-09T09:46:12;5.47;;;3.00;;
80842;SDS011;70255;53.686;10.778;2023-07-09T09:48:43;4.95;;;3.30;;
80842;SDS011;70255;53.686;10.778;2023-07-09T09:51:09;4.18;;;2.80;;
80842;SDS011;70255;53.686;10.778;2023-07-09T09:53:37;4.43;;;3.20;;
80842;SDS011;70255;53.686;10.778;2023-07-09T09:56:05;3.55;;;2.78;;
80842;SDS011;70255;53.686;10.778;2023-07-09T09:58:30;5.22;;;3.00;;
80842;SDS011;70255;53.686;10.778;2023-07-09T10:00:56;5.23;;;2.97;;
80842;SDS011;70255;53.686;10.778;2023-07-09T10:03:32;4.15;;;2.72;;
80842;SDS011;70255;53.686;10.778;2023-07-09T10:05:58;3.78;;;3.08;;
80842;SDS011;70255;53.686;10.778;2023-07-09T10:11:05;4.60;;;2.95;;
80842;SDS011;70255;53.686;10.778;2023-07-09T10:13:34;4.05;;;3.13;;
80842;SDS011;70255;53.686;10.778;2023-07-09T10:16:09;5.85;;;3.10;;
80842;SDS011;70255;53.686;10.778;2023-07-09T10:21:14;4.18;;;2.83;;
80842;SDS011;70255;53.686;10.778;2023-07-09T10:23:52;5.57;;;3.22;;
80842;SDS011;70255;53.686;10.778;2023-07-09T10:26:27;6.03;;;3.03;;
80842;SDS011;70255;53.686;10.778;2023-07-09T10:29:01;5.03;;;3.50;;
80842;SDS011;70255;53.686;10.778;2023-07-09T10:31:41;4.68;;;3.20;;
80842;SDS011;70255;53.686;10.778;2023-07-09T10:39:20;4.53;;;2.90;;
80842;SDS011;70255;53.686;10.778;2023-07-09T10:44:15;3.85;;;2.80;;
80842;SDS011;70255;53.686;10.778;2023-07-09T10:46:45;6.60;;;3.30;;
80842;SDS011;70255;53.686;10.778;2023-07-09T10:49:14;4.35;;;3.60;;
80842;SDS011;70255;53.686;10.778;2023-07-09T10:51:46;5.75;;;3.50;;
80842;SDS011;70255;53.686;10.778;2023-07-09T10:54:34;4.07;;;3.35;;
80842;SDS011;70255;53.686;10.778;2023-07-09T10:57:04;4.72;;;3.00;;
80842;SDS011;70255;53.686;10.778;2023-07-09T10:59:32;4.25;;;3.10;;
80842;SDS011;70255;53.686;10.778;2023-07-09T11:04:43;4.85;;;3.65;;
80842;SDS011;70255;53.686;10.778;2023-07-09T11:07:12;5.28;;;3.25;;
80842;SDS011;70255;53.686;10.778;2023-07-09T11:09:42;6.28;;;3.30;;
80842;SDS011;70255;53.686;10.778;2023-07-09T11:12:19;5.80;;;3.40;;
80842;SDS011;70255;53.686;10.778;2023-07-09T11:14:47;4.75;;;3.38;;
80842;SDS011;70255;53.686;10.778;2023-07-09T11:17:21;4.22;;;3.67;;
80842;SDS011;70255;53.686;10.778;2023-07-09T11:19:48;6.82;;;3.92;;
80842;SDS011;70255;53.686;10.778;2023-07-09T11:22:15;5.85;;;4.43;;
80842;SDS011;70255;53.686;10.778;2023-07-09T11:27:22;4.30;;;3.90;;
80842;SDS011;70255;53.686;10.778;2023-07-09T11:29:51;4.38;;;3.65;;
80842;SDS011;70255;53.686;10.778;2023-07-09T11:32:23;4.03;;;3.63;;
80842;SDS011;70255;53.686;10.778;2023-07-09T11:34:49;5.53;;;4.03;;
80842;SDS011;70255;53.686;10.778;2023-07-09T11:37:14;5.30;;;3.80;;
80842;SDS011;70255;53.686;10.778;2023-07-09T11:44:49;5.95;;;3.45;;
80842;SDS011;70255;53.686;10.778;2023-07-09T11:52:11;4.82;;;3.47;;
80842;SDS011;70255;53.686;10.778;2023-07-09T11:54:36;6.22;;;3.70;;
80842;SDS011;70255;53.686;10.778;2023-07-09T11:57:02;6.22;;;3.72;;
80842;SDS011;70255;53.686;10.778;2023-07-09T11:59:28;11.63;;;4.25;;
80842;SDS011;70255;53.686;10.778;2023-07-09T12:01:53;4.13;;;3.60;;
80842;SDS011;70255;53.686;10.778;2023-07-09T12:04:21;4.05;;;3.50;;
80842;SDS011;70255;53.686;10.778;2023-07-09T12:06:47;4.40;;;3.70;;
80842;SDS011;70255;53.686;10.778;2023-07-09T12:09:19;6.47;;;3.88;;
80842;SDS011;70255;53.686;10.778;2023-07-09T12:11:46;6.47;;;4.03;;
80842;SDS011;70255;53.686;10.778;2023-07-09T12:14:12;5.60;;;3.65;;
80842;SDS011;70255;53.686;10.778;2023-07-09T12:16:39;4.80;;;4.13;;
80842;SDS011;70255;53.686;10.778;2023-07-09T12:19:04;4.78;;;4.10;;
80842;SDS011;70255;53.686;10.778;2023-07-09T12:21:30;4.40;;;3.85;;
80842;SDS011;70255;53.686;10.778;2023-07-09T12:23:56;4.40;;;3.95;;
80842;SDS011;70255;53.686;10.778;2023-07-09T12:26:21;3.90;;;3.30;;
80842;SDS011;70255;53.686;10.778;2023-07-09T12:28:53;5.23;;;3.67;;
80842;SDS011;70255;53.686;10.778;2023-07-09T12:31:20;4.90;;;3.80;;
80842;SDS011;70255;53.686;10.778;2023-07-09T12:33:49;5.85;;;3.67;;
80842;SDS011;70255;53.686;10.778;2023-07-09T12:36:16;5.43;;;4.22;;
80842;SDS011;70255;53.686;10.778;2023-07-09T12:38:42;4.82;;;3.88;;
80842;SDS011;70255;53.686;10.778;2023-07-09T12:41:18;5.30;;;3.70;;
80842;SDS011;70255;53.686;10.778;2023-07-09T12:43:44;6.40;;;3.85;;
80842;SDS011;70255;53.686;10.778;2023-07-09T12:46:09;4.80;;;3.40;;
80842;SDS011;70255;53.686;10.778;2023-07-09T12:48:35;4.82;;;4.00;;
80842;SDS011;70255;53.686;10.778;2023-07-09T12:51:00;5.37;;;4.10;;
80842;SDS011;70255;53.686;10.778;2023-07-09T12:53:27;5.53;;;4.03;;
80842;SDS011;70255;53.686;10.778;2023-07-09T12:55:56;4.80;;;4.00;;
80842;SDS011;70255;53.686;10.778;2023-07-09T12:58:23;6.53;;;4.13;;
80842;SDS011;70255;53.686;10.778;2023-07-09T13:00:53;6.05;;;4.07;;
80842;SDS011;70255;53.686;10.778;2023-07-09T13:03:26;6.65;;;4.13;;
80842;SDS011;70255;53.686;10.778;2023-07-09T13:06:02;5.55;;;4.10;;
80842;SDS011;70255;53.686;10.778;2023-07-09T13:08:29;5.13;;;4.05;;
80842;SDS011;70255;53.686;10.778;2023-07-09T13:10:55;5.55;;;4.30;;
80842;SDS011;70255;53.686;10.778;2023-07-09T13:13:22;5.00;;;3.97;;
80842;SDS011;70255;53.686;10.778;2023-07-09T13:15:49;6.35;;;4.85;;
80842;SDS011;70255;53.686;10.778;2023-07-09T13:18:14;4.97;;;4.22;;
80842;SDS011;70255;53.686;10.778;2023-07-09T13:20:43;6.35;;;3.90;;
80842;SDS011;70255;53.686;10.778;2023-07-09T13:23:14;5.95;;;4.00;;
80842;SDS011;70255;53.686;10.778;2023-07-09T13:25:39;5.75;;;3.97;;
80842;SDS011;70255;53.686;10.778;2023-07-09T13:28:07;7.10;;;4.10;;
80842;SDS011;70255;53.686;10.778;2023-07-09T13:30:33;6.28;;;4.53;;
80842;SDS011;70255;53.686;10.778;2023-07-09T13:32:59;5.22;;;4.32;;
80842;SDS011;70255;53.686;10.778;2023-07-09T13:35:25;6.67;;;4.33;;
80842;SDS011;70255;53.686;10.778;2023-07-09T13:37:50;5.93;;;3.92;;
80842;SDS011;70255;53.686;10.778;2023-07-09T13:40:16;5.30;;;3.80;;
80842;SDS011;70255;53.686;10.778;2023-07-09T13:42:42;5.03;;;3.90;;
80842;SDS011;70255;53.686;10.778;2023-07-09T13:45:18;6.78;;;4.13;;
80842;SDS011;70255;53.686;10.778;2023-07-09T13:47:44;4.93;;;3.92;;
80842;SDS011;70255;53.686;10.778;2023-07-09T13:50:09;4.93;;;3.83;;
80842;SDS011;70255;53.686;10.778;2023-07-09T13:52:35;6.13;;;4.17;;
80842;SDS011;70255;53.686;10.778;2023-07-09T13:55:01;5.43;;;4.13;;
80842;SDS011;70255;53.686;10.778;2023-07-09T13:57:26;6.75;;;4.22;;
80842;SDS011;70255;53.686;10.778;2023-07-09T13:59:52;5.05;;;3.70;;
80842;SDS011;70255;53.686;10.778;2023-07-09T14:04:42;6.60;;;4.00;;
80842;SDS011;70255;53.686;10.778;2023-07-09T14:07:11;5.80;;;4.40;;
80842;SDS011;70255;53.686;10.778;2023-07-09T14:09:44;5.93;;;4.03;;
80842;SDS011;70255;53.686;10.778;2023-07-09T14:12:09;5.13;;;4.00;;
80842;SDS011;70255;53.686;10.778;2023-07-09T14:14:35;5.75;;;4.28;;
80842;SDS011;70255;53.686;10.778;2023-07-09T14:17:01;7.85;;;4.93;;
80842;SDS011;70255;53.686;10.778;2023-07-09T14:19:26;5.67;;;4.80;;
80842;SDS011;70255;53.686;10.778;2023-07-09T14:21:51;8.07;;;5.83;;
80842;SDS011;70255;53.686;10.778;2023-07-09T14:26:42;7.05;;;4.75;;
80842;SDS011;70255;53.686;10.778;2023-07-09T14:29:08;5.60;;;3.93;;
80842;SDS011;70255;53.686;10.778;2023-07-09T14:31:33;5.93;;;4.25;;
80842;SDS011;70255;53.686;10.778;2023-07-09T14:34:22;5.53;;;4.10;;
80842;SDS011;70255;53.686;10.778;2023-07-09T14:36:46;5.85;;;4.05;;
80842;SDS011;70255;53.686;10.778;2023-07-09T14:39:11;4.30;;;3.42;;
80842;SDS011;70255;53.686;10.778;2023-07-09T14:41:37;5.40;;;4.03;;
80842;SDS011;70255;53.686;10.778;2023-07-09T14:44:02;6.00;;;4.10;;
80842;SDS011;70255;53.686;10.778;2023-07-09T14:46:28;5.05;;;4.30;;
80842;SDS011;70255;53.686;10.778;2023-07-09T14:48:53;5.72;;;4.00;;
80842;SDS011;70255;53.686;10.778;2023-07-09T14:51:18;6.60;;;4.27;;
80842;SDS011;70255;53.686;10.778;2023-07-09T14:53:45;8.63;;;3.92;;
80842;SDS011;70255;53.686;10.778;2023-07-09T14:56:11;5.28;;;3.80;;
80842;SDS011;70255;53.686;10.778;2023-07-09T14:58:37;6.10;;;4.35;;
80842;SDS011;70255;53.686;10.778;2023-07-09T15:01:03;6.03;;;4.35;;
80842;SDS011;70255;53.686;10.778;2023-07-09T15:03:28;5.67;;;4.07;;
80842;SDS011;70255;53.686;10.778;2023-07-09T15:05:54;8.55;;;4.20;;
80842;SDS011;70255;53.686;10.778;2023-07-09T15:08:20;7.40;;;3.90;;
80842;SDS011;70255;53.686;10.778;2023-07-09T15:10:49;8.10;;;4.20;;
80842;SDS011;70255;53.686;10.778;2023-07-09T15:13:19;6.15;;;4.65;;